createdAt,value
2022-11-03T00:00:12.914Z,91.69
2022-11-03T00:02:39.761Z,91.22
2022-11-03T00:05:26.692Z,91.05
2022-11-03T00:07:53.342Z,91.10
2022-11-03T00:10:19.917Z,90.90
2022-11-03T00:12:46.508Z,91.73
2022-11-03T00:15:13.123Z,91.49
2022-11-03T00:17:39.681Z,92.05
2022-11-03T00:20:06.737Z,91.50
2022-11-03T00:22:33.759Z,92.27
2022-11-03T00:25:00.436Z,91.90
2022-11-03T00:27:27.104Z,91.85
2022-11-03T00:29:53.760Z,92.72
2022-11-03T00:32:20.381Z,92.33
2022-11-03T00:34:46.958Z,92.01
2022-11-03T08:50:25.911Z,98.08
2022-11-03T08:52:52.533Z,98.10
2022-11-03T08:55:19.121Z,97.44
2022-11-03T08:57:45.674Z,97.49
2022-11-03T09:00:12.975Z,96.98
2022-11-03T09:02:39.683Z,97.29
2022-11-03T09:05:07.819Z,96.60
2022-11-03T09:10:23.499Z,96.40
2022-11-03T09:12:55.350Z,95.34
2022-11-03T09:15:21.938Z,94.52
2022-11-03T09:17:48.738Z,94.97
2022-11-03T09:20:15.833Z,94.99
2022-11-03T09:22:42.467Z,94.47
2022-11-03T09:25:09.685Z,94.10
2022-11-03T09:27:36.274Z,93.77
2022-11-03T09:30:18.501Z,93.07
2022-11-03T09:32:46.394Z,92.88
2022-11-03T09:35:14.688Z,92.59
2022-11-03T09:37:41.411Z,92.32
2022-11-03T09:40:10.264Z,92.62
2022-11-03T09:42:38.829Z,91.80
2022-11-03T09:45:07.783Z,92.41
2022-11-03T09:47:37.210Z,92.57
2022-11-03T09:50:05.195Z,92.85
2022-11-03T09:52:32.465Z,92.80
2022-11-03T09:54:59.810Z,92.15
2022-11-03T09:57:29.559Z,91.95
2022-11-03T09:59:56.301Z,92.78
2022-11-03T10:02:29.455Z,91.12
2022-11-03T10:04:58.156Z,91.17
2022-11-03T10:07:27.753Z,90.28
2022-11-03T10:09:56.443Z,89.89
2022-11-03T10:12:24.540Z,88.64
2022-11-03T10:14:52.602Z,88.27
2022-11-03T10:17:22.250Z,87.67
2022-11-03T10:19:52.349Z,88.02
2022-11-03T10:22:20.743Z,88.09
2022-11-03T10:24:47.878Z,87.98
2022-11-03T10:27:25.770Z,86.17
2022-11-03T10:30:12.889Z,86.23
2022-11-03T10:32:41.525Z,86.70
2022-11-03T10:35:34.055Z,84.76
2022-11-03T10:38:30.566Z,84.97
2022-11-03T10:41:10.446Z,83.79
2022-11-03T10:43:38.132Z,84.87
2022-11-03T10:49:18.571Z,81.42
2022-11-03T10:51:48.673Z,82.68
2022-11-03T10:54:18.201Z,82.46
2022-11-03T10:56:45.707Z,81.44
2022-11-03T10:59:21.340Z,80.65
2022-11-03T11:01:48.152Z,81.70
2022-11-03T11:04:20.005Z,79.29
2022-11-03T11:06:47.511Z,80.45
2022-11-03T11:09:23.486Z,80.38
2022-11-03T11:12:23.502Z,79.30
2022-11-03T11:15:01.365Z,78.49
2022-11-03T11:17:37.048Z,78.54
2022-11-03T11:20:18.934Z,76.13
2022-11-03T11:22:46.025Z,77.21
2022-11-03T11:25:12.963Z,76.62
2022-11-03T11:27:39.456Z,76.19
2022-11-03T11:30:27.081Z,74.97
2022-11-03T11:33:12.431Z,76.77
2022-11-03T11:35:39.055Z,75.71
2022-11-03T11:38:47.159Z,72.78
2022-11-03T11:41:13.816Z,73.38
2022-11-03T11:43:40.424Z,74.98
2022-11-03T11:46:36.952Z,75.34
2022-11-03T11:49:17.467Z,75.75
2022-11-03T11:51:44.198Z,72.84
2022-11-03T11:54:18.556Z,72.85
2022-11-03T11:56:47.534Z,72.93
2022-11-03T11:59:25.815Z,74.62
2022-11-03T12:01:55.596Z,72.91
2022-11-03T12:04:22.143Z,73.60
2022-11-03T12:06:49.399Z,74.54
2022-11-03T12:09:21.402Z,74.65
2022-11-03T12:11:55.338Z,73.66
2022-11-03T12:14:28.911Z,73.72
2022-11-03T12:16:56.938Z,73.21
2022-11-03T12:19:35.714Z,73.21
2022-11-03T12:22:04.640Z,73.04
2022-11-03T12:24:31.164Z,72.83
2022-11-03T12:26:58.994Z,71.58
2022-11-03T12:29:25.598Z,72.32
2022-11-03T12:31:52.437Z,71.49
2022-11-03T12:34:19.122Z,71.45
2022-11-03T12:36:47.972Z,71.19
2022-11-03T12:39:16.177Z,71.77
2022-11-03T12:41:42.795Z,71.09
2022-11-03T12:44:09.602Z,72.05
2022-11-03T12:46:36.220Z,71.25
2022-11-03T12:49:02.828Z,71.92
2022-11-03T12:51:29.920Z,69.64
2022-11-03T12:53:56.552Z,68.86
2022-11-03T12:56:23.174Z,68.54
2022-11-03T12:58:49.738Z,69.70
2022-11-03T13:01:16.731Z,69.33
2022-11-03T13:03:43.731Z,69.87
2022-11-03T13:06:11.782Z,69.87
2022-11-03T13:08:53.219Z,70.07
2022-11-03T13:11:54.280Z,70.51
2022-11-03T13:14:21.838Z,70.34
2022-11-03T13:16:48.459Z,71.16
2022-11-03T13:19:17.524Z,71.25
2022-11-03T13:21:44.159Z,70.94
2022-11-03T13:24:10.883Z,69.17
2022-11-03T13:26:37.454Z,70.21
2022-11-03T13:29:04.019Z,70.55
2022-11-03T13:31:31.357Z,71.04
2022-11-03T13:33:57.962Z,70.96
2022-11-03T13:36:24.561Z,71.34
2022-11-03T13:38:51.209Z,71.59
2022-11-03T13:41:17.741Z,71.20
2022-11-03T13:43:44.378Z,70.90
2022-11-03T13:46:12.975Z,71.17
2022-11-03T13:51:26.406Z,71.72
2022-11-03T13:59:27.994Z,70.77
2022-11-03T14:04:43.138Z,71.91
2022-11-03T14:07:10.636Z,70.72
2022-11-03T14:12:27.758Z,70.85
2022-11-03T14:14:54.372Z,71.02
2022-11-03T14:19:52.405Z,72.15
2022-11-03T14:22:24.051Z,71.44
2022-11-03T14:24:51.776Z,71.86
2022-11-03T14:27:20.122Z,71.64
2022-11-03T14:29:49.961Z,71.70
2022-11-03T14:32:17.654Z,72.21
2022-11-03T14:34:44.560Z,71.86
2022-11-03T14:37:11.923Z,72.27
2022-11-03T14:39:39.027Z,72.70
2022-11-03T14:42:09.681Z,72.97
2022-11-03T14:44:38.543Z,73.01
2022-11-03T14:47:07.451Z,73.14
2022-11-03T14:49:35.258Z,73.18
2022-11-03T14:52:03.463Z,73.11
2022-11-03T14:54:31.088Z,73.46
2022-11-03T14:56:58.517Z,72.47
2022-11-03T14:59:25.674Z,73.05
2022-11-03T15:01:52.944Z,73.52
2022-11-03T15:04:20.496Z,73.30
2022-11-03T15:06:47.839Z,73.14
2022-11-03T15:09:15.075Z,72.07
2022-11-03T15:11:43.289Z,73.55
2022-11-03T15:14:10.657Z,73.79
2022-11-03T15:16:37.836Z,73.99
2022-11-03T15:19:05.641Z,74.39
2022-11-03T15:21:33.026Z,74.70
2022-11-03T15:26:46.540Z,73.78
2022-11-03T15:29:13.179Z,74.21
2022-11-03T15:31:44.538Z,74.44
2022-11-03T15:34:14.089Z,74.79
2022-11-03T15:36:40.739Z,74.70
2022-11-03T15:39:07.351Z,74.85
2022-11-03T15:41:33.999Z,75.20
2022-11-03T15:44:00.519Z,75.26
2022-11-03T15:46:27.127Z,74.92
2022-11-03T15:48:54.615Z,75.00
2022-11-03T15:51:21.429Z,75.08
2022-11-03T15:53:49.476Z,75.78
2022-11-03T15:56:18.835Z,75.69
2022-11-03T15:58:45.407Z,76.03
2022-11-03T16:01:12.109Z,76.31
2022-11-03T16:03:38.890Z,76.27
2022-11-03T16:06:05.702Z,76.86
2022-11-03T16:08:32.297Z,76.83
2022-11-03T16:10:58.893Z,77.69
2022-11-03T16:13:25.745Z,78.07
2022-11-03T16:15:55.587Z,78.36
2022-11-03T16:18:22.398Z,78.26
2022-11-03T16:20:48.908Z,78.59
2022-11-03T16:23:15.608Z,78.42
2022-11-03T16:25:42.161Z,78.31
2022-11-03T16:28:09.118Z,79.30
2022-11-03T16:30:38.445Z,79.43
2022-11-03T16:33:05.193Z,79.83
2022-11-03T16:35:31.924Z,80.36
2022-11-03T16:37:58.482Z,80.12
2022-11-03T16:40:25.080Z,80.26
2022-11-03T16:42:51.696Z,80.17
2022-11-03T16:45:23.657Z,80.84
2022-11-03T16:47:51.165Z,81.08
2022-11-03T16:50:18.841Z,81.08
2022-11-03T16:52:49.743Z,82.17
2022-11-03T16:55:17.744Z,81.76
2022-11-03T16:57:44.722Z,81.53
2022-11-03T17:00:14.943Z,82.53
2022-11-03T17:02:42.039Z,82.18
2022-11-03T17:05:10.033Z,82.72
2022-11-03T17:07:36.848Z,82.45
2022-11-03T17:10:04.971Z,82.36
2022-11-03T17:12:31.709Z,83.02
2022-11-03T17:14:58.664Z,82.86
2022-11-03T17:17:25.251Z,82.99
2022-11-03T17:19:51.997Z,82.94
2022-11-03T17:22:20.286Z,82.91
2022-11-03T17:24:46.830Z,83.33
2022-11-03T17:27:16.620Z,83.51
2022-11-03T17:29:49.919Z,83.20
2022-11-03T17:32:21.781Z,83.44
2022-11-03T17:34:48.401Z,83.51
2022-11-03T17:37:15.089Z,83.35
2022-11-03T17:39:41.896Z,83.54
2022-11-03T17:42:21.662Z,83.75
2022-11-03T17:44:50.359Z,84.18
2022-11-03T17:47:19.353Z,84.85
2022-11-03T17:49:47.152Z,84.43
2022-11-03T17:52:26.884Z,83.72
2022-11-03T17:54:57.384Z,82.32
2022-11-03T17:57:25.247Z,82.59
2022-11-03T17:59:55.417Z,83.36
2022-11-03T18:02:27.210Z,83.28
2022-11-03T18:05:01.155Z,83.93
2022-11-03T18:07:29.600Z,82.62
2022-11-03T18:09:56.444Z,82.64
2022-11-03T18:12:45.040Z,82.65
2022-11-03T18:15:16.406Z,82.10
2022-11-03T18:17:43.485Z,82.19
2022-11-03T18:20:14.507Z,80.67
2022-11-03T18:22:41.049Z,80.52
2022-11-03T18:25:19.096Z,80.33
2022-11-03T18:27:46.001Z,80.31
2022-11-03T18:30:16.826Z,80.83
2022-11-03T18:32:48.305Z,80.56
2022-11-03T18:35:18.792Z,79.76
2022-11-03T18:37:46.249Z,80.13
2022-11-03T18:40:14.875Z,80.22
2022-11-03T18:42:41.717Z,79.48
2022-11-03T18:45:12.979Z,79.12
2022-11-03T18:47:40.348Z,79.76
2022-11-03T18:50:07.889Z,79.38
2022-11-03T18:52:41.991Z,79.36
2022-11-03T18:55:12.782Z,78.08
2022-11-03T18:57:39.838Z,78.26
2022-11-03T19:00:19.056Z,78.62
2022-11-03T19:02:47.437Z,79.48
2022-11-03T19:05:15.557Z,78.47
2022-11-03T19:07:45.324Z,78.13
2022-11-03T19:10:19.543Z,78.51
2022-11-03T19:12:46.897Z,78.84
2022-11-03T19:15:20.264Z,78.26
2022-11-03T19:17:49.465Z,78.71
2022-11-03T19:20:18.395Z,79.12
2022-11-03T19:22:46.426Z,79.04
2022-11-03T19:25:14.678Z,79.32
2022-11-03T19:27:45.945Z,78.93
2022-11-03T19:30:15.303Z,78.76
2022-11-03T19:32:45.932Z,78.91
2022-11-03T19:35:21.534Z,78.81
2022-11-03T19:37:51.003Z,79.07
2022-11-03T19:40:18.712Z,79.76
2022-11-03T19:42:45.498Z,79.31
2022-11-03T19:45:17.700Z,79.04
2022-11-03T19:48:28.473Z,79.27
2022-11-03T19:50:45.577Z,78.43
2022-11-03T19:53:20.117Z,79.11
2022-11-03T19:55:47.454Z,78.50
2022-11-03T19:58:34.392Z,78.79
2022-11-03T20:01:07.261Z,78.33
2022-11-03T20:03:35.492Z,79.01
2022-11-03T20:06:02.148Z,79.09
2022-11-03T20:08:32.290Z,78.97
2022-11-03T20:10:59.224Z,78.90
2022-11-03T20:13:30.171Z,78.62
2022-11-03T20:16:00.519Z,78.48
2022-11-03T20:18:28.318Z,78.99
2022-11-03T20:20:55.296Z,79.15
2022-11-03T20:23:30.375Z,78.86
2022-11-03T20:25:57.439Z,78.91
2022-11-03T20:28:28.495Z,79.11
2022-11-03T20:30:56.124Z,79.61
2022-11-03T20:33:24.967Z,79.46
2022-11-03T20:35:53.710Z,78.91
2022-11-03T20:38:20.921Z,79.63
2022-11-03T20:40:49.125Z,79.74
2022-11-03T20:43:26.608Z,80.31
2022-11-03T20:45:54.945Z,80.48
2022-11-03T20:48:21.981Z,81.32
2022-11-03T20:50:48.986Z,81.46
2022-11-03T20:53:18.650Z,81.54
2022-11-03T20:55:45.343Z,81.43
2022-11-03T20:58:16.479Z,81.80
2022-11-03T21:00:46.027Z,81.02
2022-11-03T21:06:16.379Z,79.01
2022-11-03T21:08:43.940Z,79.78
2022-11-03T21:11:26.993Z,80.54
